Time;durP1;ratioP1;P1;durP2;ratioP2;P2;SDS_P1;SDS_P2;PMS_P1;PMS_P2;Temp;Humidity;BMP_temperature;BMP_pressure;BME280_temperature;BME280_humidity;BME280_pressure;Samples;Min_cycle;Max_cycle;Signal;HPM_P1;HPM_P2
2021/10/14 00:00:19;;;;;;;4.70;3.65;;;20.80;86.00;;;;;;5010708;28;20113;-63
2021/10/14 00:02:47;;;;;;;8.43;5.13;;;20.90;85.30;;;;;;5010589;28;20048;-61
2021/10/14 00:05:16;;;;;;;5.95;5.13;;;20.90;85.00;;;;;;5009996;28;20121;-63
2021/10/14 00:07:43;;;;;;;9.98;4.18;;;20.90;85.30;;;;;;5009639;28;20041;-64
2021/10/14 00:10:11;;;;;;;11.43;4.40;;;21.00;85.20;;;;;;5008807;28;20539;-63
2021/10/14 00:12:38;;;;;;;10.65;4.03;;;21.00;84.70;;;;;;5008510;28;20062;-60
2021/10/14 00:15:06;;;;;;;7.97;3.63;;;21.10;85.00;;;;;;5009225;28;20116;-63
2021/10/14 00:17:33;;;;;;;7.47;3.45;;;21.20;84.30;;;;;;5009697;28;20029;-62
2021/10/14 00:20:01;;;;;;;5.65;2.50;;;21.20;84.90;;;;;;5009371;28;20040;-62
2021/10/14 00:22:28;;;;;;;7.07;2.60;;;21.40;84.20;;;;;;5009633;28;20090;-65
2021/10/14 00:24:56;;;;;;;7.20;3.20;;;21.50;83.50;;;;;;5009859;28;20054;-55
2021/10/14 00:27:23;;;;;;;8.48;2.83;;;21.60;82.80;;;;;;5009593;28;20388;-62
2021/10/14 00:29:50;;;;;;;6.53;3.00;;;21.50;84.00;;;;;;5009246;28;20066;-61
2021/10/14 00:32:18;;;;;;;7.90;2.75;;;21.60;83.90;;;;;;5009767;28;20098;-62
2021/10/14 00:34:45;;;;;;;10.15;3.95;;;21.70;83.00;;;;;;5009316;28;20038;-63
2021/10/14 00:37:12;;;;;;;9.43;3.10;;;21.60;83.40;;;;;;5009658;28;20026;-61
2021/10/14 00:39:40;;;;;;;3.97;2.60;;;21.70;82.50;;;;;;5009594;28;20473;-63
2021/10/14 00:42:07;;;;;;;8.38;3.17;;;21.60;82.80;;;;;;4992472;28;20052;-63
2021/10/14 00:44:55;;;;;;;6.07;3.60;;;21.80;82.70;;;;;;4992422;28;20045;-62
2021/10/14 00:47:27;;;;;;;6.05;2.92;;;21.90;82.00;;;;;;5009460;28;20079;-62
2021/10/14 00:49:56;;;;;;;6.95;3.30;;;22.00;81.20;;;;;;5009329;28;20469;-62
2021/10/14 00:52:25;;;;;;;5.93;2.92;;;22.00;81.60;;;;;;5009745;28;20074;-61
2021/10/14 00:54:55;;;;;;;6.25;2.67;;;22.10;81.80;;;;;;5009273;28;20408;-62
2021/10/14 00:57:23;;;;;;;6.35;2.55;;;22.20;81.60;;;;;;4991753;28;20059;-60
2021/10/14 00:59:51;;;;;;;10.75;2.67;;;22.10;82.20;;;;;;5009315;28;20052;-63
2021/10/14 01:02:19;;;;;;;8.95;2.58;;;22.20;81.90;;;;;;5009406;28;20391;-61
2021/10/14 01:04:46;;;;;;;7.65;2.30;;;22.30;81.90;;;;;;5009037;28;20029;-62
2021/10/14 01:07:14;;;;;;;6.35;2.47;;;22.40;81.20;;;;;;5009168;28;20373;-62
2021/10/14 01:09:41;;;;;;;8.90;2.75;;;22.30;80.90;;;;;;5009257;28;20507;-62
2021/10/14 01:12:08;;;;;;;3.63;2.10;;;22.40;80.80;;;;;;5008594;28;20472;-62
2021/10/14 01:14:36;;;;;;;5.57;2.35;;;22.40;80.50;;;;;;5008620;28;20443;-60
2021/10/14 01:17:03;;;;;;;3.30;1.90;;;22.40;80.90;;;;;;5011999;28;20038;-61
2021/10/14 01:19:31;;;;;;;5.43;2.25;;;22.30;80.80;;;;;;5012613;28;20021;-62
2021/10/14 01:21:59;;;;;;;4.63;2.17;;;22.40;81.10;;;;;;5012417;28;20029;-62
2021/10/14 01:24:26;;;;;;;5.40;2.63;;;22.40;81.10;;;;;;5012792;28;20022;-64
2021/10/14 01:26:53;;;;;;;6.93;2.20;;;22.50;80.90;;;;;;5012627;28;20078;-60
2021/10/14 01:29:21;;;;;;;9.82;2.75;;;22.40;80.60;;;;;;5012599;28;20030;-64
2021/10/14 01:31:48;;;;;;;10.52;2.20;;;22.50;81.50;;;;;;5012367;28;20053;-60
2021/10/14 01:34:16;;;;;;;4.60;2.28;;;22.60;79.60;;;;;;5012037;28;20049;-59
2021/10/14 01:36:43;;;;;;;4.93;1.95;;;22.70;80.50;;;;;;4994753;28;20084;-61
2021/10/14 01:39:11;;;;;;;5.68;2.05;;;22.80;79.50;;;;;;5012582;28;20199;-62
2021/10/14 01:41:42;;;;;;;8.50;2.38;;;22.80;79.80;;;;;;5012146;28;20030;-61
2021/10/14 01:44:10;;;;;;;4.60;1.85;;;22.80;79.10;;;;;;5012682;28;20022;-59
2021/10/14 01:46:37;;;;;;;6.00;2.55;;;22.90;79.80;;;;;;5011956;28;20037;-63
2021/10/14 01:49:05;;;;;;;5.55;2.67;;;22.80;78.90;;;;;;5012063;28;20026;-63
2021/10/14 01:51:32;;;;;;;5.32;2.22;;;22.70;79.50;;;;;;5011970;28;20066;-62
2021/10/14 01:54:00;;;;;;;4.88;1.80;;;22.80;80.70;;;;;;5011333;28;20053;-64
2021/10/14 01:56:27;;;;;;;5.53;2.42;;;22.90;79.80;;;;;;5012174;28;20030;-63
2021/10/14 01:58:54;;;;;;;3.40;1.80;;;22.90;80.80;;;;;;5011498;28;20026;-65
2021/10/14 02:01:21;;;;;;;8.55;2.35;;;22.90;79.60;;;;;;5000386;28;20033;-63
2021/10/14 02:03:49;;;;;;;6.97;1.95;;;22.90;80.20;;;;;;5010193;28;20038;-60
2021/10/14 02:06:16;;;;;;;10.75;2.45;;;22.90;80.20;;;;;;4989363;28;20026;-63
2021/10/14 02:08:43;;;;;;;8.18;2.30;;;23.00;79.50;;;;;;5010141;28;20018;-62
2021/10/14 02:11:11;;;;;;;3.78;1.73;;;22.90;79.10;;;;;;5005731;28;20030;-61
2021/10/14 02:13:40;;;;;;;4.28;1.90;;;23.00;79.90;;;;;;5009660;28;20025;-62
2021/10/14 02:16:07;;;;;;;5.60;2.53;;;22.90;78.90;;;;;;5009867;28;20404;-59
2021/10/14 02:18:34;;;;;;;5.85;2.17;;;23.00;79.40;;;;;;5008581;28;20056;-65
2021/10/14 02:21:02;;;;;;;5.50;1.90;;;23.00;79.90;;;;;;5005422;28;20029;-62
2021/10/14 02:23:29;;;;;;;3.08;1.75;;;23.10;79.70;;;;;;5008780;28;20083;-62
2021/10/14 02:25:57;;;;;;;5.28;2.00;;;23.10;79.00;;;;;;5009038;28;20138;-61
2021/10/14 02:28:24;;;;;;;5.95;1.83;;;23.00;79.50;;;;;;5011388;28;20105;-63
2021/10/14 02:30:51;;;;;;;4.68;1.85;;;23.10;79.60;;;;;;5011817;28;20030;-61
2021/10/14 02:33:19;;;;;;;6.70;2.25;;;22.90;79.80;;;;;;5011485;28;20018;-61
2021/10/14 02:35:46;;;;;;;3.92;1.63;;;22.90;80.40;;;;;;5011191;28;20507;-62
2021/10/14 02:38:13;;;;;;;5.70;2.00;;;22.70;80.70;;;;;;5012116;28;20026;-64
2021/10/14 02:40:41;;;;;;;6.75;2.65;;;22.80;81.10;;;;;;5011601;28;20026;-64
2021/10/14 02:43:08;;;;;;;7.07;2.10;;;22.80;81.30;;;;;;4994493;28;20461;-64
2021/10/14 02:45:35;;;;;;;5.00;2.05;;;22.90;81.50;;;;;;5011301;28;20084;-65
2021/10/14 02:48:03;;;;;;;6.35;2.35;;;22.70;80.50;;;;;;5010848;28;20074;-64
2021/10/14 02:50:30;;;;;;;7.10;2.20;;;22.70;82.40;;;;;;5011114;28;20026;-68
2021/10/14 02:52:57;;;;;;;6.57;2.13;;;22.80;81.60;;;;;;5011057;28;20022;-63
2021/10/14 02:55:25;;;;;;;10.45;2.42;;;22.80;82.20;;;;;;5012155;28;20045;-66
2021/10/14 02:57:52;;;;;;;7.60;2.35;;;22.70;81.10;;;;;;5011264;28;20042;-66
2021/10/14 03:00:20;;;;;;;5.13;1.88;;;22.70;83.00;;;;;;4994321;28;20030;-63
2021/10/14 03:02:47;;;;;;;6.00;1.67;;;22.80;81.20;;;;;;5011213;28;20029;-65
2021/10/14 03:05:14;;;;;;;8.38;2.40;;;22.80;82.30;;;;;;5011004;28;20022;-66
2021/10/14 03:07:41;;;;;;;8.90;2.78;;;22.90;81.50;;;;;;4985001;28;20047;-65
2021/10/14 03:10:09;;;;;;;5.88;2.85;;;22.70;82.20;;;;;;5006983;28;20163;-63
2021/10/14 03:12:37;;;;;;;7.07;2.83;;;22.70;81.80;;;;;;4990049;28;20472;-65
2021/10/14 03:15:05;;;;;;;11.65;4.03;;;22.90;82.90;;;;;;5008535;28;20138;-61
2021/10/14 03:17:33;;;;;;;11.82;4.65;;;22.90;82.00;;;;;;5007831;28;20041;-62
2021/10/14 03:20:00;;;;;;;7.32;3.63;;;23.00;81.40;;;;;;5004598;28;20033;-60
2021/10/14 03:22:27;;;;;;;11.93;4.07;;;22.90;81.70;;;;;;4990823;28;20403;-62
2021/10/14 03:24:54;;;;;;;12.60;4.38;;;22.90;82.00;;;;;;5007502;28;20030;-61
2021/10/14 03:27:22;;;;;;;15.85;5.05;;;22.80;82.50;;;;;;5010702;28;20061;-63
2021/10/14 03:29:49;;;;;;;12.90;5.00;;;23.00;81.80;;;;;;5010720;28;20105;-64
2021/10/14 03:32:16;;;;;;;12.07;3.97;;;22.80;82.70;;;;;;5010825;28;20338;-60
2021/10/14 03:34:44;;;;;;;12.63;3.97;;;22.90;82.80;;;;;;5010641;28;20113;-60
2021/10/14 03:37:11;;;;;;;16.00;5.07;;;22.90;82.70;;;;;;5010701;28;20029;-65
2021/10/14 03:39:42;;;;;;;14.80;4.65;;;22.90;82.90;;;;;;5009862;28;20061;-60
2021/10/14 03:42:09;;;;;;;13.98;4.13;;;22.80;83.50;;;;;;5010520;28;20030;-63
2021/10/14 03:44:36;;;;;;;11.57;4.50;;;22.80;83.40;;;;;;5010328;28;20030;-66
2021/10/14 03:47:04;;;;;;;19.60;4.65;;;22.80;83.90;;;;;;5010712;28;20022;-63
2021/10/14 03:49:31;;;;;;;11.98;4.18;;;22.70;84.60;;;;;;5010474;28;20384;-64
2021/10/14 03:51:58;;;;;;;12.30;4.40;;;22.60;84.10;;;;;;5010235;28;20109;-65
2021/10/14 03:54:26;;;;;;;16.27;5.50;;;22.60;84.70;;;;;;5009566;28;20133;-60
2021/10/14 03:56:53;;;;;;;16.45;4.88;;;22.60;85.20;;;;;;5010349;28;20483;-62
2021/10/14 03:59:20;;;;;;;13.85;4.28;;;22.50;84.90;;;;;;5010255;28;20053;-63
2021/10/14 04:01:48;;;;;;;17.63;4.90;;;22.50;85.20;;;;;;5009831;28;20384;-62
2021/10/14 04:04:15;;;;;;;12.63;3.92;;;22.40;84.90;;;;;;5009734;28;20075;-58
2021/10/14 04:06:42;;;;;;;12.40;4.38;;;22.30;85.60;;;;;;5009796;28;20026;-59
2021/10/14 04:09:10;;;;;;;14.13;4.45;;;22.30;85.40;;;;;;5009994;28;20021;-61
2021/10/14 04:11:37;;;;;;;10.70;4.05;;;22.20;86.10;;;;;;5009793;28;20034;-59
2021/10/14 04:14:04;;;;;;;10.40;4.70;;;22.20;86.70;;;;;;5009760;28;20449;-56
2021/10/14 04:16:32;;;;;;;13.80;4.47;;;22.10;86.10;;;;;;5009737;28;20042;-64
2021/10/14 04:18:59;;;;;;;14.88;4.45;;;22.00;87.00;;;;;;5009048;28;20074;-65
2021/10/14 04:21:26;;;;;;;10.43;4.43;;;22.00;86.50;;;;;;5009767;28;20393;-65
2021/10/14 04:23:56;;;;;;;15.00;4.93;;;22.00;86.70;;;;;;4991548;28;20109;-58
2021/10/14 04:26:23;;;;;;;13.45;4.30;;;22.00;87.60;;;;;;5009600;28;20026;-66
2021/10/14 04:28:51;;;;;;;15.25;4.45;;;21.90;88.10;;;;;;5009653;28;20046;-61
2021/10/14 04:31:18;;;;;;;14.18;4.53;;;21.90;87.20;;;;;;5009661;28;20470;-62
2021/10/14 04:33:46;;;;;;;14.05;4.25;;;21.80;88.10;;;;;;5009360;28;20113;-63
2021/10/14 04:36:13;;;;;;;12.80;3.72;;;21.80;88.00;;;;;;5009727;28;20038;-64
2021/10/14 04:38:40;;;;;;;9.85;3.88;;;21.80;88.20;;;;;;4991783;28;20487;-60
2021/10/14 04:41:08;;;;;;;14.70;5.15;;;21.70;87.70;;;;;;5009583;28;20123;-63
2021/10/14 04:43:35;;;;;;;12.38;4.80;;;21.60;88.30;;;;;;5009895;28;20022;-63
2021/10/14 04:46:02;;;;;;;15.07;4.80;;;21.60;88.90;;;;;;5009743;28;20063;-60
2021/10/14 04:48:30;;;;;;;16.48;4.85;;;21.60;88.90;;;;;;5009291;28;20046;-63
2021/10/14 04:50:57;;;;;;;16.55;4.20;;;21.50;89.20;;;;;;5010552;28;20136;-61
2021/10/14 04:53:24;;;;;;;11.75;3.92;;;21.50;89.30;;;;;;5012791;28;20034;-56
2021/10/14 04:55:52;;;;;;;13.52;4.47;;;21.50;90.50;;;;;;5003669;28;20038;-60
2021/10/14 04:58:19;;;;;;;10.45;4.15;;;21.40;90.10;;;;;;5008118;28;20038;-61
2021/10/14 05:00:46;;;;;;;17.42;5.38;;;21.40;90.20;;;;;;5010916;28;20079;-63
2021/10/14 05:03:14;;;;;;;13.15;4.25;;;21.30;90.20;;;;;;5010921;28;20037;-60
2021/10/14 05:05:41;;;;;;;15.30;4.65;;;21.30;90.40;;;;;;5010821;28;20049;-64
2021/10/14 05:08:09;;;;;;;13.95;4.05;;;21.30;90.30;;;;;;5012450;28;20062;-63
2021/10/14 05:10:36;;;;;;;13.10;4.63;;;21.30;90.30;;;;;;5012660;28;20034;-58
2021/10/14 05:13:03;;;;;;;14.38;3.80;;;21.20;90.20;;;;;;5012657;28;20121;-58
2021/10/14 05:15:30;;;;;;;15.07;3.95;;;21.20;90.30;;;;;;5012715;28;20552;-63
2021/10/14 05:17:58;;;;;;;16.63;4.30;;;21.20;90.60;;;;;;5012216;28;20101;-63
2021/10/14 05:20:25;;;;;;;13.45;3.95;;;21.10;90.60;;;;;;5013290;28;20582;-64
2021/10/14 05:22:52;;;;;;;13.70;3.88;;;21.10;90.60;;;;;;5012582;28;20413;-65
2021/10/14 05:25:20;;;;;;;13.45;3.83;;;21.10;90.50;;;;;;5012450;28;20038;-67
2021/10/14 05:27:47;;;;;;;13.50;4.15;;;21.00;90.70;;;;;;5012371;28;20026;-69
2021/10/14 05:30:15;;;;;;;14.57;4.63;;;21.00;90.60;;;;;;5012699;28;20034;-65
2021/10/14 05:32:42;;;;;;;13.07;4.18;;;21.00;90.70;;;;;;5012421;28;20033;-64
2021/10/14 05:35:10;;;;;;;9.80;4.00;;;21.00;90.70;;;;;;5012597;28;20030;-65
2021/10/14 05:37:38;;;;;;;17.30;5.15;;;21.00;90.80;;;;;;5012059;28;20025;-65
2021/10/14 05:40:06;;;;;;;13.80;4.25;;;21.00;91.50;;;;;;5012214;28;20508;-66
2021/10/14 05:42:34;;;;;;;15.63;4.30;;;21.00;91.20;;;;;;5012139;28;20030;-68
2021/10/14 05:45:01;;;;;;;11.20;4.00;;;21.00;91.20;;;;;;5012677;28;20105;-65
2021/10/14 05:47:28;;;;;;;15.60;4.88;;;21.00;91.00;;;;;;5012526;28;20093;-66
2021/10/14 05:49:56;;;;;;;16.92;4.55;;;21.00;90.80;;;;;;5012509;28;20487;-61
2021/10/14 05:52:23;;;;;;;15.75;4.75;;;21.00;90.90;;;;;;4995376;28;20033;-62
2021/10/14 05:54:51;;;;;;;16.75;4.85;;;21.00;90.90;;;;;;5011745;28;20069;-67
2021/10/14 05:57:19;;;;;;;13.85;3.97;;;21.00;91.20;;;;;;5011143;28;20028;-62
2021/10/14 05:59:46;;;;;;;12.80;4.40;;;20.90;90.90;;;;;;5002424;28;20439;-64
2021/10/14 06:02:14;;;;;;;14.52;3.28;;;20.90;91.00;;;;;;4991749;28;20022;-62
2021/10/14 06:04:41;;;;;;;12.10;4.25;;;20.90;91.00;;;;;;5009676;28;20033;-62
2021/10/14 06:07:08;;;;;;;19.67;5.60;;;20.90;91.50;;;;;;5011637;28;20021;-60
2021/10/14 06:09:35;;;;;;;16.92;5.18;;;21.00;95.30;;;;;;5008460;28;20057;-56
2021/10/14 06:12:03;;;;;;;11.27;4.25;;;21.00;93.50;;;;;;4992160;28;20037;-63
2021/10/14 06:14:30;;;;;;;11.90;4.53;;;20.90;91.40;;;;;;5011450;28;20525;-63
2021/10/14 06:16:59;;;;;;;15.57;4.93;;;20.90;91.20;;;;;;5011540;28;20136;-61
2021/10/14 06:19:26;;;;;;;13.85;5.35;;;20.90;93.00;;;;;;4994293;28;20480;-61
2021/10/14 06:21:54;;;;;;;16.45;6.53;;;20.90;91.90;;;;;;5011067;28;20030;-59
2021/10/14 06:24:21;;;;;;;20.15;6.05;;;20.90;92.70;;;;;;5010991;28;20026;-62
2021/10/14 06:26:48;;;;;;;16.35;5.82;;;21.10;97.20;;;;;;5010448;28;20495;-62
2021/10/14 06:29:16;;;;;;;18.80;6.53;;;21.10;92.30;;;;;;5011085;28;20029;-62
2021/10/14 06:31:43;;;;;;;16.42;8.88;;;21.20;95.20;;;;;;4992883;28;20056;-63
2021/10/14 06:34:10;;;;;;;18.90;8.50;;;21.10;91.70;;;;;;5011112;28;20190;-62
2021/10/14 06:36:38;;;;;;;25.45;6.43;;;21.10;92.00;;;;;;4993678;28;20045;-63
2021/10/14 06:39:05;;;;;;;28.00;10.05;;;21.00;94.70;;;;;;5010775;28;20382;-60
2021/10/14 06:41:33;;;;;;;28.83;5.70;;;21.00;94.60;;;;;;5010548;28;20026;-65
2021/10/14 06:44:10;;;;;;;23.25;7.88;;;20.80;95.60;;;;;;5010198;28;20032;-61
2021/10/14 06:46:38;;;;;;;34.88;8.40;;;20.80;94.80;;;;;;5010056;28;20511;-65
2021/10/14 06:49:06;;;;;;;51.95;11.55;;;20.80;96.00;;;;;;5011594;28;20425;-61
2021/10/14 06:51:33;;;;;;;35.65;8.77;;;20.70;96.40;;;;;;5010327;28;20025;-62
2021/10/14 06:54:00;;;;;;;51.58;9.40;;;20.70;93.70;;;;;;5010453;28;20420;-61
2021/10/14 06:56:28;;;;;;;41.63;10.05;;;20.50;95.50;;;;;;5011144;28;20038;-63
2021/10/14 06:58:55;;;;;;;44.35;10.90;;;20.60;95.20;;;;;;5011058;28;20052;-60
2021/10/14 07:01:23;;;;;;;41.88;10.60;;;20.60;95.80;;;;;;5010959;28;20026;-61
2021/10/14 07:03:50;;;;;;;39.05;11.15;;;20.60;96.00;;;;;;5010984;28;20014;-63
2021/10/14 07:06:17;;;;;;;34.75;10.38;;;20.60;95.10;;;;;;5010973;28;20026;-63
2021/10/14 07:08:45;;;;;;;41.13;8.05;;;20.50;94.20;;;;;;5010960;28;20105;-61
2021/10/14 07:11:12;;;;;;;30.33;10.25;;;20.50;96.00;;;;;;5011065;28;20396;-63
2021/10/14 07:13:44;;;;;;;26.55;8.52;;;20.60;93.80;;;;;;5009821;28;20037;-63
2021/10/14 07:16:12;;;;;;;29.13;8.60;;;20.50;94.70;;;;;;5011336;28;20434;-61
2021/10/14 07:18:39;;;;;;;32.58;8.27;;;20.50;94.60;;;;;;5010929;28;20053;-65
2021/10/14 07:21:09;;;;;;;33.85;7.25;;;20.40;96.50;;;;;;5011029;28;20038;-62
2021/10/14 07:23:37;;;;;;;34.38;7.70;;;20.30;96.90;;;;;;5011417;28;20104;-60
2021/10/14 07:26:04;;;;;;;33.05;9.13;;;20.30;96.80;;;;;;4993462;28;20057;-64
2021/10/14 07:28:31;;;;;;;40.28;7.95;;;20.40;95.90;;;;;;5010996;28;20026;-63
2021/10/14 07:30:58;;;;;;;38.42;9.07;;;20.30;96.10;;;;;;5010671;28;20033;-62
2021/10/14 07:33:26;;;;;;;32.28;8.73;;;20.40;94.80;;;;;;5010574;28;20436;-55
2021/10/14 07:35:53;;;;;;;38.28;8.80;;;20.40;95.30;;;;;;5010447;28;20038;-61
2021/10/14 07:38:21;;;;;;;38.30;8.32;;;20.40;97.00;;;;;;5010660;28;20061;-63
2021/10/14 07:40:48;;;;;;;40.10;9.82;;;20.50;95.60;;;;;;5010959;28;20041;-63
2021/10/14 07:43:16;;;;;;;26.38;8.18;;;20.30;95.70;;;;;;4993265;28;20026;-63
2021/10/14 07:45:45;;;;;;;39.08;8.15;;;20.30;95.20;;;;;;5010057;28;20083;-64
2021/10/14 07:48:12;;;;;;;41.47;8.27;;;20.50;96.50;;;;;;5010242;28;20022;-63
2021/10/14 07:50:40;;;;;;;26.10;6.93;;;20.30;96.50;;;;;;5010398;28;20026;-63
2021/10/14 07:53:17;;;;;;;35.33;7.72;;;20.30;95.40;;;;;;5009864;28;20053;-65
2021/10/14 07:55:45;;;;;;;33.15;8.30;;;20.40;96.20;;;;;;5010168;28;20485;-62
2021/10/14 07:58:13;;;;;;;31.73;8.18;;;20.30;95.60;;;;;;5010360;28;20022;-65
2021/10/14 08:00:41;;;;;;;27.75;7.45;;;20.40;95.30;;;;;;5010223;28;20036;-59
2021/10/14 08:03:09;;;;;;;31.08;7.28;;;20.50;95.20;;;;;;5010774;28;20376;-61
2021/10/14 08:05:37;;;;;;;26.52;7.47;;;20.50;95.30;;;;;;5010463;28;20026;-66
2021/10/14 08:08:05;;;;;;;37.53;8.10;;;20.60;95.30;;;;;;5009490;28;20026;-64
2021/10/14 08:10:34;;;;;;;38.33;7.82;;;20.60;95.80;;;;;;5010386;28;20116;-57
2021/10/14 08:13:31;;;;;;;43.58;9.45;;;20.60;95.60;;;;;;5010913;28;20079;-57
2021/10/14 08:16:00;;;;;;;43.45;9.25;;;20.60;95.60;;;;;;5010005;28;20097;-64
2021/10/14 08:18:28;;;;;;;45.75;10.18;;;20.60;96.20;;;;;;5009855;28;20480;-59
2021/10/14 08:20:57;;;;;;;49.65;8.75;;;20.60;96.40;;;;;;5010131;28;20029;-61
2021/10/14 08:23:25;;;;;;;37.85;9.35;;;20.50;96.60;;;;;;5010289;28;20468;-65
2021/10/14 08:25:54;;;;;;;83.97;39.63;;;20.60;96.60;;;;;;5009549;28;20373;-66
2021/10/14 08:28:24;;;;;;;47.05;14.50;;;20.60;96.70;;;;;;5010303;28;20426;-61
2021/10/14 08:30:52;;;;;;;43.25;11.52;;;20.70;97.10;;;;;;5010371;28;20050;-70
2021/10/14 08:33:19;;;;;;;51.90;12.43;;;20.60;96.90;;;;;;5009868;28;20041;-61
2021/10/14 08:35:46;;;;;;;46.30;12.35;;;20.60;97.50;;;;;;5010047;28;20082;-63
2021/10/14 08:38:14;;;;;;;49.20;11.45;;;20.70;97.40;;;;;;5010511;28;20041;-68
2021/10/14 08:40:42;;;;;;;49.30;10.00;;;20.60;97.50;;;;;;4997079;28;20034;-59
2021/10/14 08:43:14;;;;;;;59.80;12.50;;;20.70;97.20;;;;;;5007057;28;20022;-59
2021/10/14 08:45:45;;;;;;;54.67;10.63;;;20.70;97.40;;;;;;5003778;28;20486;-59
2021/10/14 08:48:12;;;;;;;47.28;10.98;;;20.60;97.10;;;;;;5004928;28;20037;-63
2021/10/14 08:50:43;;;;;;;51.70;10.43;;;20.60;97.20;;;;;;5006677;28;20033;-62
2021/10/14 08:53:11;;;;;;;44.72;11.80;;;20.50;97.30;;;;;;5005166;28;20022;-58
2021/10/14 08:55:40;;;;;;;46.35;10.55;;;20.50;97.70;;;;;;5001594;28;20045;-62
2021/10/14 08:58:12;;;;;;;53.67;10.40;;;20.50;97.90;;;;;;4988782;28;20026;-62
2021/10/14 09:00:40;;;;;;;;;;;20.50;97.70;;;;;;5005356;28;20173;-61
2021/10/14 09:03:27;;;;;;;41.72;11.02;;;20.50;98.20;;;;;;5009095;28;19909;-69
2021/10/14 09:05:54;;;;;;;47.65;10.07;;;20.40;97.80;;;;;;4990153;28;20018;-66
2021/10/14 09:08:41;;;;;;;47.92;10.27;;;20.40;97.70;;;;;;5008179;28;20568;-68
2021/10/14 09:11:27;;;;;;;45.10;10.93;;;20.30;98.00;;;;;;5009410;28;20030;-67
2021/10/14 09:14:03;;;;;;;53.17;11.25;;;20.30;97.90;;;;;;5009305;28;20057;-60
2021/10/14 09:16:40;;;;;;;43.00;10.82;;;20.30;98.40;;;;;;5001213;28;20088;-60
2021/10/14 09:19:14;;;;;;;49.83;10.75;;;20.40;98.40;;;;;;5005961;28;20026;-63
2021/10/14 09:21:48;;;;;;;46.38;9.40;;;20.40;98.20;;;;;;4970440;28;20034;-64
2021/10/14 09:24:39;;;;;;;48.80;10.85;;;20.50;97.90;;;;;;5006291;28;20030;-61
2021/10/14 09:27:11;;;;;;;41.35;9.70;;;20.50;97.50;;;;;;5007412;28;20083;-61
2021/10/14 09:29:41;;;;;;;43.50;10.20;;;20.60;97.30;;;;;;5004939;28;20096;-61
2021/10/14 09:32:18;;;;;;;38.08;9.00;;;20.60;97.10;;;;;;5004366;28;20499;-58
2021/10/14 09:34:48;;;;;;;36.25;10.02;;;20.60;96.80;;;;;;5009992;28;20030;-63
2021/10/14 09:37:23;;;;;;;37.50;9.43;;;20.60;96.60;;;;;;5009499;28;20087;-59
2021/10/14 09:40:11;;;;;;;33.00;9.10;;;20.60;96.50;;;;;;5009585;28;20025;-62
2021/10/14 09:42:54;;;;;;;36.00;8.88;;;20.60;96.30;;;;;;5010492;28;20025;-63
2021/10/14 09:45:30;;;;;;;33.63;8.73;;;20.60;96.20;;;;;;5009785;28;20057;-63
2021/10/14 09:48:08;;;;;;;31.27;8.25;;;20.60;96.10;;;;;;5006154;28;20030;-62
2021/10/14 09:50:43;;;;;;;30.13;7.78;;;20.60;96.00;;;;;;5005114;28;20133;-59
2021/10/14 09:53:19;;;;;;;33.40;9.43;;;20.60;95.90;;;;;;5009406;28;20033;-62
2021/10/14 09:55:48;;;;;;;31.05;8.75;;;20.60;95.90;;;;;;5009496;28;20496;-59
2021/10/14 09:58:16;;;;;;;29.50;8.65;;;20.60;95.90;;;;;;4992006;28;21563;-61
2021/10/14 10:00:45;;;;;;;33.80;9.30;;;20.60;95.80;;;;;;5007323;28;20030;-61
2021/10/14 10:03:20;;;;;;;30.75;7.97;;;20.60;95.70;;;;;;4995687;28;20054;-54
2021/10/14 10:05:50;;;;;;;31.27;7.90;;;20.60;95.70;;;;;;5012854;28;20473;-59
2021/10/14 10:08:49;;;;;;;32.80;8.30;;;20.60;95.70;;;;;;5013034;28;20026;-58
2021/10/14 10:11:21;;;;;;;27.73;8.52;;;20.50;95.60;;;;;;5013373;28;20095;-53
2021/10/14 10:14:05;;;;;;;29.93;7.70;;;20.60;95.60;;;;;;5012586;28;20076;-55
2021/10/14 10:16:36;;;;;;;28.05;7.72;;;20.50;95.50;;;;;;4995349;28;20145;-56
2021/10/14 10:19:06;;;;;;;28.60;7.88;;;20.50;95.40;;;;;;5013528;28;20488;-56
2021/10/14 10:21:34;;;;;;;23.63;6.50;;;20.50;95.40;;;;;;5013527;28;20069;-59
2021/10/14 10:24:26;;;;;;;25.75;7.20;;;20.50;95.40;;;;;;5012856;28;20014;-62
2021/10/14 10:26:55;;;;;;;19.02;6.10;;;20.50;95.30;;;;;;5013106;28;20026;-56
2021/10/14 10:29:23;;;;;;;27.90;7.35;;;20.40;95.30;;;;;;4994867;28;20062;-53
2021/10/14 10:31:56;;;;;;;24.70;7.15;;;20.40;95.30;;;;;;5012260;28;20050;-59
2021/10/14 10:34:59;;;;;;;22.88;6.57;;;20.40;95.30;;;;;;5012982;28;20037;-63
2021/10/14 10:37:36;;;;;;;25.58;7.45;;;20.40;95.20;;;;;;5012843;28;20037;-62
2021/10/14 10:40:22;;;;;;;23.15;6.95;;;20.40;95.10;;;;;;4995329;28;20026;-62
2021/10/14 10:43:03;;;;;;;25.55;7.13;;;20.40;95.10;;;;;;5012701;28;20026;-53
2021/10/14 10:45:43;;;;;;;22.02;7.05;;;20.40;95.10;;;;;;5013012;28;20062;-55
2021/10/14 10:48:12;;;;;;;24.60;6.57;;;20.40;95.00;;;;;;5014522;28;20094;-58
2021/10/14 10:50:54;;;;;;;23.75;6.32;;;20.40;95.00;;;;;;5013235;28;20116;-57
2021/10/14 10:53:51;;;;;;;23.85;6.93;;;20.30;95.00;;;;;;5012362;28;20048;-60
2021/10/14 10:56:54;;;;;;;25.35;7.47;;;20.30;95.00;;;;;;4995196;28;20053;-65
2021/10/14 10:59:22;;;;;;;18.67;5.93;;;20.30;95.00;;;;;;4995688;28;20029;-60
2021/10/14 11:01:49;;;;;;;24.35;6.60;;;20.30;94.90;;;;;;4994388;28;20058;-53
2021/10/14 11:04:17;;;;;;;21.85;7.10;;;20.30;94.90;;;;;;5012769;28;20029;-57
2021/10/14 11:06:55;;;;;;;20.15;6.30;;;20.30;94.90;;;;;;5012676;28;20075;-62
2021/10/14 11:09:27;;;;;;;23.33;6.07;;;20.30;94.90;;;;;;5012245;28;20526;-60
2021/10/14 11:12:05;;;;;;;19.45;6.10;;;20.30;94.90;;;;;;4979241;28;20022;-63
2021/10/14 11:14:39;;;;;;;19.25;5.25;;;20.30;94.80;;;;;;5012238;28;20033;-60
2021/10/14 11:17:13;;;;;;;20.23;5.85;;;20.20;94.80;;;;;;5011374;28;20042;-52
2021/10/14 11:19:41;;;;;;;19.55;5.93;;;20.20;94.80;;;;;;5010994;28;20010;-58
2021/10/14 11:22:18;;;;;;;18.92;5.30;;;20.20;94.80;;;;;;5012075;28;20061;-59
2021/10/14 11:24:50;;;;;;;19.38;6.45;;;20.20;94.80;;;;;;5011883;28;20109;-54
2021/10/14 11:27:22;;;;;;;21.55;6.40;;;20.20;94.80;;;;;;5012295;28;20092;-57
2021/10/14 11:29:51;;;;;;;16.38;5.30;;;20.20;94.70;;;;;;5011628;28;20049;-56
2021/10/14 11:32:30;;;;;;;18.42;5.50;;;20.20;94.70;;;;;;5011438;28;20480;-56
2021/10/14 11:35:17;;;;;;;23.33;6.70;;;20.20;94.70;;;;;;5011797;28;20034;-54
2021/10/14 11:37:44;;;;;;;18.88;5.25;;;20.20;94.70;;;;;;5011185;28;20383;-52
2021/10/14 11:40:13;;;;;;;19.08;6.70;;;20.20;94.70;;;;;;4993410;28;20018;-56
2021/10/14 11:42:40;;;;;;;20.48;5.93;;;20.10;94.60;;;;;;5010614;28;20032;-62
2021/10/14 11:45:09;;;;;;;19.38;5.97;;;20.10;94.60;;;;;;5010966;28;20089;-61
2021/10/14 11:47:41;;;;;;;21.85;7.00;;;20.10;94.60;;;;;;5010775;28;20025;-55
2021/10/14 11:50:09;;;;;;;20.27;5.47;;;20.10;94.60;;;;;;5010808;28;20108;-53
2021/10/14 11:52:37;;;;;;;18.50;5.28;;;20.10;94.60;;;;;;5010846;28;20026;-62
2021/10/14 11:55:09;;;;;;;18.60;6.78;;;20.10;94.60;;;;;;5010557;28;20070;-60
2021/10/14 11:57:37;;;;;;;;;;;20.10;94.90;;;;;;4993910;28;20030;-54
2021/10/14 12:00:06;;;;;;;16.85;5.72;;;20.00;94.60;;;;;;5010284;28;19997;-60
2021/10/14 12:02:43;;;;;;;15.35;4.95;;;20.00;94.60;;;;;;5010549;28;20067;-61
2021/10/14 12:05:11;;;;;;;19.15;4.88;;;20.00;94.60;;;;;;5010171;28;20030;-61
2021/10/14 12:07:44;;;;;;;12.90;4.82;;;20.00;94.60;;;;;;5010476;28;20022;-63
2021/10/14 12:10:32;;;;;;;20.20;6.05;;;20.00;94.60;;;;;;5006957;28;20090;-60
2021/10/14 12:13:05;;;;;;;17.50;5.00;;;20.00;94.60;;;;;;5010145;28;20026;-59
2021/10/14 12:15:33;;;;;;;14.18;5.57;;;19.90;94.70;;;;;;5009857;28;20037;-60
2021/10/14 12:18:01;;;;;;;16.35;5.60;;;20.00;94.60;;;;;;5009794;28;20021;-59
2021/10/14 12:20:29;;;;;;;15.07;5.30;;;20.00;94.60;;;;;;4992393;28;20026;-62
2021/10/14 12:23:05;;;;;;;16.48;5.40;;;19.90;94.60;;;;;;5010004;28;20022;-60
2021/10/14 12:25:37;;;;;;;19.27;6.60;;;20.00;94.60;;;;;;5009665;28;20468;-60
2021/10/14 12:28:07;;;;;;;20.02;6.28;;;19.90;94.60;;;;;;5010287;28;20034;-60
2021/10/14 12:30:41;;;;;;;14.75;6.15;;;19.90;94.60;;;;;;5009651;28;20484;-59
2021/10/14 12:33:11;;;;;;;18.60;5.70;;;19.90;94.60;;;;;;5009712;28;20038;-59
2021/10/14 12:36:00;;;;;;;17.83;4.85;;;19.90;94.50;;;;;;5009498;28;20086;-60
2021/10/14 12:38:54;;;;;;;15.98;5.22;;;19.90;94.50;;;;;;4996849;28;20380;-60
2021/10/14 12:41:22;;;;;;;16.48;5.35;;;19.90;94.60;;;;;;5004784;28;20036;-62
2021/10/14 12:43:58;;;;;;;13.48;5.20;;;19.90;94.50;;;;;;5007263;28;20029;-58
2021/10/14 12:49:22;;;;;;;17.15;5.40;;;19.90;94.40;;;;;;5007090;28;20048;-55
2021/10/14 12:51:51;;;;;;;16.98;5.15;;;20.00;94.40;;;;;;5006651;28;20030;-61
2021/10/14 12:54:21;;;;;;;12.25;4.70;;;20.00;94.40;;;;;;5007311;28;20455;-56